Time;durP1;ratioP1;P1;durP2;ratioP2;P2;SDS_P1;SDS_P2;PMS_P1;PMS_P2;Temp;Humidity;BMP_temperature;BMP_pressure;BME280_temperature;BME280_humidity;BME280_pressure;Samples;Min_cycle;Max_cycle;Signal;HPM_P1;HPM_P2
2022/09/12 00:00:42;;;;;;;21.17;15.73;;;12.90;99.90;;;;;;5053961;28;20451;-62
2022/09/12 00:03:09;;;;;;;17.50;13.43;;;12.90;99.90;;;;;;5052924;28;20448;-63
2022/09/12 00:05:42;;;;;;;18.33;13.70;;;12.90;99.90;;;;;;5053038;28;20997;-62
2022/09/12 00:08:08;;;;;;;16.37;12.40;;;12.90;99.90;;;;;;5053350;28;20502;-61
2022/09/12 00:10:38;;;;;;;17.97;14.07;;;12.90;99.90;;;;;;5053226;28;20444;-62
2022/09/12 00:13:05;;;;;;;16.60;12.27;;;12.80;99.90;;;;;;5053518;28;20464;-61
2022/09/12 00:15:32;;;;;;;16.50;12.17;;;12.80;99.90;;;;;;5053468;28;20486;-61
2022/09/12 00:18:00;;;;;;;17.63;14.10;;;12.80;99.90;;;;;;5053189;28;20448;-61
2022/09/12 00:20:27;;;;;;;18.17;13.00;;;12.80;99.90;;;;;;5054494;28;20455;-61
2022/09/12 00:22:53;;;;;;;16.53;13.10;;;12.80;99.90;;;;;;5053420;28;20455;-62
2022/09/12 00:25:20;;;;;;;18.10;13.20;;;12.80;99.90;;;;;;5054603;28;20460;-60
2022/09/12 00:27:47;;;;;;;17.10;14.20;;;12.80;99.90;;;;;;5057489;28;20443;-62
2022/09/12 00:30:14;;;;;;;20.40;13.20;;;12.80;99.90;;;;;;5057252;28;20439;-61
2022/09/12 00:32:41;;;;;;;19.70;14.57;;;12.70;99.90;;;;;;5057418;28;20440;-61
2022/09/12 00:35:09;;;;;;;16.63;13.53;;;12.70;99.90;;;;;;5058039;28;20479;-61
2022/09/12 00:37:36;;;;;;;19.63;14.23;;;12.80;99.90;;;;;;5061534;28;20444;-61
2022/09/12 00:40:03;;;;;;;22.30;14.60;;;12.80;99.90;;;;;;5060942;28;20454;-61
2022/09/12 00:42:29;;;;;;;19.00;13.67;;;12.70;99.90;;;;;;5061524;28;20567;-60
2022/09/12 00:44:56;;;;;;;20.30;12.93;;;12.70;99.90;;;;;;5060828;28;20436;-61
2022/09/12 00:47:26;;;;;;;18.73;12.83;;;12.70;99.90;;;;;;5061156;28;20858;-62
2022/09/12 00:50:00;;;;;;;21.40;14.53;;;12.60;99.90;;;;;;5061190;28;20463;-62
2022/09/12 00:52:32;;;;;;;19.43;13.50;;;12.60;99.90;;;;;;5060814;28;20431;-62
2022/09/12 00:55:03;;;;;;;24.70;15.63;;;12.60;99.90;;;;;;5060381;28;20464;-62
2022/09/12 00:57:35;;;;;;;23.80;16.13;;;12.50;99.90;;;;;;5060424;28;20510;-62
2022/09/12 01:00:08;;;;;;;19.03;15.27;;;12.50;99.90;;;;;;5060533;28;20920;-62
2022/09/12 01:02:35;;;;;;;15.73;14.03;;;12.50;99.90;;;;;;5060514;28;20420;-62
2022/09/12 01:05:02;;;;;;;21.30;13.80;;;12.50;99.90;;;;;;5057559;28;20466;-62
2022/09/12 01:07:30;;;;;;;19.10;13.67;;;12.40;99.90;;;;;;5056685;28;20517;-62
2022/09/12 01:09:57;;;;;;;18.03;13.67;;;12.40;99.90;;;;;;5056499;28;20448;-62
2022/09/12 01:12:24;;;;;;;19.23;14.10;;;12.40;99.90;;;;;;5056288;28;20458;-62
2022/09/12 01:14:51;;;;;;;17.70;13.33;;;12.40;99.90;;;;;;5056092;28;20479;-62
2022/09/12 01:17:18;;;;;;;19.30;14.40;;;12.40;99.90;;;;;;5056134;28;20463;-62
2022/09/12 01:20:16;;;;;;;18.77;14.00;;;12.40;99.90;;;;;;5056165;28;20440;-62
2022/09/12 01:23:09;;;;;;;20.90;14.40;;;12.30;99.90;;;;;;5056487;28;20428;-62
2022/09/12 01:25:47;;;;;;;20.50;15.10;;;12.30;99.90;;;;;;5056043;28;20472;-62
2022/09/12 01:28:45;;;;;;;24.80;15.00;;;12.30;99.90;;;;;;5056170;28;20429;-62
2022/09/12 01:31:16;;;;;;;21.50;14.73;;;12.30;99.90;;;;;;5055903;28;20429;-62
2022/09/12 01:34:00;;;;;;;22.20;14.07;;;12.30;99.90;;;;;;5056285;28;20424;-62
2022/09/12 01:36:41;;;;;;;20.90;13.67;;;12.30;99.90;;;;;;5055623;28;20487;-63
2022/09/12 01:39:19;;;;;;;20.20;14.73;;;12.30;99.90;;;;;;5055718;28;20428;-61
2022/09/12 01:41:54;;;;;;;20.60;14.23;;;12.20;99.90;;;;;;5055777;28;20439;-62
2022/09/12 01:44:29;;;;;;;21.03;15.03;;;12.20;99.90;;;;;;5055834;28;20432;-62
2022/09/12 01:47:02;;;;;;;20.37;14.37;;;12.20;99.90;;;;;;5055356;28;20479;-62
2022/09/12 01:49:36;;;;;;;22.03;15.40;;;12.20;99.90;;;;;;5055788;28;20443;-62
2022/09/12 01:52:07;;;;;;;21.23;14.90;;;12.10;99.90;;;;;;5056164;28;20428;-62
2022/09/12 01:54:39;;;;;;;19.37;15.07;;;12.10;99.90;;;;;;5056370;28;20435;-62
2022/09/12 01:57:13;;;;;;;23.30;15.30;;;12.10;99.90;;;;;;5055579;28;20448;-62
2022/09/12 01:59:44;;;;;;;18.67;13.90;;;12.00;99.90;;;;;;5056689;28;20757;-62
2022/09/12 02:02:16;;;;;;;20.77;13.90;;;12.10;99.90;;;;;;5057256;28;20424;-62
2022/09/12 02:04:50;;;;;;;16.77;13.57;;;12.00;99.90;;;;;;5060832;28;20425;-62
2022/09/12 02:07:21;;;;;;;17.80;15.07;;;12.00;99.90;;;;;;5057569;28;20459;-62
2022/09/12 02:09:54;;;;;;;21.43;14.37;;;12.00;99.90;;;;;;5057030;28;20433;-62
2022/09/12 02:12:25;;;;;;;24.27;14.83;;;12.00;99.90;;;;;;5057148;28;20432;-62
2022/09/12 02:14:57;;;;;;;16.80;13.00;;;12.00;99.90;;;;;;5055336;28;20432;-62
2022/09/12 02:17:26;;;;;;;18.23;13.87;;;12.00;99.90;;;;;;5055399;28;20424;-62
2022/09/12 02:19:57;;;;;;;20.07;14.20;;;12.00;99.90;;;;;;5056111;28;20444;-62
2022/09/12 02:22:28;;;;;;;23.20;13.30;;;11.90;99.90;;;;;;5055091;28;20448;-62
2022/09/12 02:24:59;;;;;;;20.50;13.30;;;11.90;99.90;;;;;;5054477;28;20451;-62
2022/09/12 02:27:30;;;;;;;20.67;13.63;;;11.90;99.90;;;;;;5054517;28;20920;-62
2022/09/12 02:29:57;;;;;;;17.63;14.27;;;11.90;99.90;;;;;;5055025;28;20432;-62
2022/09/12 02:32:31;;;;;;;18.77;13.93;;;11.90;99.90;;;;;;5054595;28;20804;-62
2022/09/12 02:35:06;;;;;;;24.10;15.33;;;11.90;99.90;;;;;;5054141;28;20900;-62
2022/09/12 02:37:46;;;;;;;24.83;13.93;;;11.90;99.90;;;;;;5054709;28;20855;-62
2022/09/12 02:40:13;;;;;;;26.83;15.93;;;11.90;99.90;;;;;;5054536;28;20439;-62
2022/09/12 02:42:40;;;;;;;27.77;16.17;;;11.90;99.90;;;;;;5054450;28;20456;-62
2022/09/12 02:45:08;;;;;;;21.50;14.23;;;11.90;99.90;;;;;;5054091;28;20459;-62
2022/09/12 02:47:40;;;;;;;24.03;15.30;;;11.90;99.90;;;;;;5055481;28;20439;-62
2022/09/12 02:50:08;;;;;;;26.37;15.23;;;11.90;99.90;;;;;;5053252;28;20432;-62
2022/09/12 02:52:35;;;;;;;23.20;15.27;;;11.90;99.90;;;;;;5054972;28;20442;-63
2022/09/12 02:55:04;;;;;;;21.87;14.90;;;11.80;99.90;;;;;;5054143;28;20494;-62
2022/09/12 02:57:31;;;;;;;24.83;15.17;;;11.80;99.90;;;;;;5053897;28;20867;-62
2022/09/12 03:00:01;;;;;;;19.30;13.70;;;11.80;99.90;;;;;;5054251;28;20448;-62
2022/09/12 03:02:40;;;;;;;25.83;15.03;;;11.80;99.90;;;;;;5054185;28;20819;-62
2022/09/12 03:05:24;;;;;;;20.97;14.37;;;11.80;99.90;;;;;;5053985;28;20448;-62
2022/09/12 03:08:09;;;;;;;25.07;15.27;;;11.80;99.90;;;;;;5053913;28;20425;-62
2022/09/12 03:10:45;;;;;;;23.87;14.80;;;11.80;99.90;;;;;;5053938;28;20487;-62
2022/09/12 03:13:23;;;;;;;25.37;14.90;;;11.80;99.90;;;;;;5053791;28;20443;-62
2022/09/12 03:15:59;;;;;;;26.90;15.07;;;11.70;99.90;;;;;;5053768;28;20494;-62
2022/09/12 03:18:40;;;;;;;21.80;14.17;;;11.70;99.90;;;;;;5053695;28;20503;-62
2022/09/12 03:21:18;;;;;;;20.60;14.43;;;11.70;99.90;;;;;;5053496;28;20942;-62
2022/09/12 03:23:55;;;;;;;21.90;15.07;;;11.70;99.90;;;;;;5053840;28;20446;-62
2022/09/12 03:26:30;;;;;;;23.03;15.77;;;11.70;99.90;;;;;;5053801;28;20510;-62
2022/09/12 03:28:58;;;;;;;26.93;15.33;;;11.70;99.90;;;;;;5053780;28;20432;-62
2022/09/12 03:31:25;;;;;;;24.40;15.20;;;11.70;99.90;;;;;;5053294;28;20451;-62
2022/09/12 03:33:52;;;;;;;20.80;14.00;;;11.70;99.90;;;;;;5053507;28;20444;-63
2022/09/12 03:36:24;;;;;;;22.50;15.07;;;11.60;99.90;;;;;;5053376;28;20491;-62
2022/09/12 03:38:51;;;;;;;29.20;16.50;;;11.60;99.90;;;;;;5053380;28;20919;-62
2022/09/12 03:41:18;;;;;;;22.90;15.30;;;11.60;99.90;;;;;;5052998;28;20444;-62
2022/09/12 03:43:45;;;;;;;25.07;14.80;;;11.70;99.90;;;;;;5054859;28;20444;-62
2022/09/12 03:46:12;;;;;;;27.83;15.10;;;11.60;99.90;;;;;;5057541;28;20476;-62
2022/09/12 03:48:39;;;;;;;24.53;15.50;;;11.60;99.90;;;;;;5059136;28;20452;-62
2022/09/12 03:51:08;;;;;;;27.33;17.87;;;11.60;99.90;;;;;;5054824;28;20440;-62
2022/09/12 03:53:36;;;;;;;28.87;16.07;;;11.60;99.90;;;;;;5053588;28;20455;-62
2022/09/12 03:56:06;;;;;;;25.70;16.17;;;11.60;99.90;;;;;;5053393;28;20490;-62
2022/09/12 03:58:34;;;;;;;26.90;16.50;;;11.60;99.90;;;;;;5053519;28;20445;-62
2022/09/12 04:01:01;;;;;;;25.13;16.60;;;11.60;99.90;;;;;;5052578;28;20448;-62
2022/09/12 04:03:28;;;;;;;22.27;15.63;;;11.60;99.90;;;;;;5053327;28;20448;-62
2022/09/12 04:05:57;;;;;;;27.47;16.70;;;11.60;99.90;;;;;;5053192;28;20483;-62
2022/09/12 04:10:13;;;;;;;30.00;17.87;;;11.60;99.90;;;;;;5091487;28;20983;-62
2022/09/12 04:12:40;;;;;;;25.00;14.50;;;11.60;99.90;;;;;;5091472;28;20950;-62
2022/09/12 04:15:08;;;;;;;25.93;16.27;;;11.50;99.90;;;;;;5090798;28;20956;-62
2022/09/12 04:17:36;;;;;;;27.17;16.90;;;11.50;99.90;;;;;;5092154;28;20442;-62
2022/09/12 04:20:03;;;;;;;25.27;16.50;;;11.60;99.90;;;;;;5091647;28;20440;-63
2022/09/12 04:22:31;;;;;;;24.73;16.20;;;11.50;99.90;;;;;;5091140;28;20481;-64
2022/09/12 04:24:58;;;;;;;30.13;17.23;;;11.50;99.90;;;;;;5090766;28;20813;-63
2022/09/12 04:27:26;;;;;;;23.27;15.47;;;11.50;99.90;;;;;;5090896;28;20442;-62
2022/09/12 04:29:53;;;;;;;24.23;16.63;;;11.50;99.90;;;;;;5090825;28;20474;-61
2022/09/12 04:32:21;;;;;;;27.47;17.93;;;11.50;99.90;;;;;;5091406;28;20446;-63
2022/09/12 04:34:48;;;;;;;29.10;15.73;;;11.50;99.90;;;;;;5090688;28;20857;-63
2022/09/12 04:37:15;;;;;;;30.03;16.67;;;11.50;99.90;;;;;;5090482;28;20466;-63
2022/09/12 04:39:42;;;;;;;22.90;15.77;;;11.50;99.90;;;;;;5090803;28;20482;-63
2022/09/12 04:42:09;;;;;;;20.77;16.03;;;11.50;99.90;;;;;;5090504;28;20454;-63
2022/09/12 04:44:37;;;;;;;23.50;15.93;;;11.50;99.90;;;;;;5090699;28;20443;-62
2022/09/12 04:47:04;;;;;;;24.00;15.90;;;11.50;99.90;;;;;;5092497;28;20470;-62
2022/09/12 04:49:31;;;;;;;24.30;17.63;;;11.50;99.90;;;;;;5094057;28;20985;-63
2022/09/12 04:51:58;;;;;;;24.67;16.10;;;11.50;99.90;;;;;;5097036;28;20545;-61
2022/09/12 04:54:26;;;;;;;24.53;16.13;;;11.50;99.90;;;;;;5097267;28;20534;-63
2022/09/12 04:56:53;;;;;;;28.00;17.63;;;11.50;99.90;;;;;;5095985;28;20459;-63
2022/09/12 04:59:21;;;;;;;20.53;15.17;;;11.50;99.90;;;;;;5096537;28;20950;-62
2022/09/12 05:01:50;;;;;;;28.87;17.50;;;11.60;99.90;;;;;;5095515;28;20460;-62
2022/09/12 05:04:17;;;;;;;28.53;17.37;;;11.60;99.90;;;;;;5095103;28;20447;-63
2022/09/12 05:06:46;;;;;;;24.97;16.60;;;11.60;99.90;;;;;;5095122;28;20474;-63
2022/09/12 05:09:14;;;;;;;26.17;17.23;;;11.60;99.90;;;;;;5092198;28;20592;-63
2022/09/12 05:11:43;;;;;;;27.30;17.33;;;11.70;99.90;;;;;;5094766;28;20853;-63
2022/09/12 05:14:10;;;;;;;26.50;17.53;;;11.70;99.90;;;;;;5100415;28;20438;-62
2022/09/12 05:16:36;;;;;;;27.00;17.30;;;11.80;99.90;;;;;;5094894;28;20469;-62
2022/09/12 05:19:05;;;;;;;25.10;16.53;;;11.80;99.90;;;;;;5088441;28;20446;-62
2022/09/12 05:21:31;;;;;;;24.10;16.83;;;11.90;99.90;;;;;;5057282;28;20447;-63
2022/09/12 05:23:59;;;;;;;24.07;15.83;;;11.90;99.90;;;;;;5056841;28;20531;-62
2022/09/12 05:26:26;;;;;;;24.07;17.10;;;12.00;99.90;;;;;;5057836;28;20998;-62
2022/09/12 05:28:53;;;;;;;26.37;15.80;;;12.10;99.90;;;;;;5057114;28;20561;-62
2022/09/12 05:31:22;;;;;;;26.00;15.80;;;12.10;99.90;;;;;;5057408;28;20446;-62
2022/09/12 05:33:51;;;;;;;22.10;15.60;;;12.10;99.90;;;;;;5057655;28;20445;-63
2022/09/12 05:36:21;;;;;;;23.57;17.23;;;12.20;99.90;;;;;;5058437;28;20821;-60
2022/09/12 05:38:48;;;;;;;19.33;14.57;;;12.20;99.90;;;;;;5057362;28;20436;-62
2022/09/12 05:41:17;;;;;;;22.27;14.77;;;12.30;99.90;;;;;;5057183;28;20556;-62
2022/09/12 05:43:45;;;;;;;19.53;13.70;;;12.30;99.90;;;;;;5056576;28;20443;-62
2022/09/12 05:46:15;;;;;;;22.23;15.30;;;12.40;99.90;;;;;;5056045;28;20472;-62
2022/09/12 05:48:44;;;;;;;19.57;14.60;;;12.40;99.90;;;;;;5055500;28;20479;-62
2022/09/12 05:51:13;;;;;;;20.63;14.13;;;12.50;99.90;;;;;;5063945;28;20447;-61
2022/09/12 05:53:41;;;;;;;18.20;15.17;;;12.60;99.90;;;;;;5060781;28;20872;-62
2022/09/12 05:56:09;;;;;;;23.17;15.03;;;12.60;99.90;;;;;;5059302;28;20478;-62
2022/09/12 05:58:38;;;;;;;20.50;13.83;;;12.70;99.90;;;;;;5065298;28;20643;-63
2022/09/12 06:01:07;;;;;;;21.53;14.30;;;12.80;99.90;;;;;;5062214;28;20794;-62
2022/09/12 06:03:34;;;;;;;18.07;12.83;;;12.90;99.90;;;;;;5063084;28;20513;-62
2022/09/12 06:06:05;;;;;;;17.77;13.23;;;13.00;99.90;;;;;;5055331;28;20472;-64
2022/09/12 06:08:32;;;;;;;18.33;12.90;;;13.10;99.90;;;;;;5055897;28;20456;-63
2022/09/12 06:11:02;;;;;;;16.53;12.77;;;13.20;99.90;;;;;;5056566;28;20455;-63
2022/09/12 06:13:31;;;;;;;17.80;13.90;;;13.30;99.90;;;;;;5056696;28;20455;-63
2022/09/12 06:16:03;;;;;;;15.30;12.70;;;13.30;99.90;;;;;;5055561;28;20475;-63
2022/09/12 06:18:30;;;;;;;17.47;12.97;;;13.50;99.90;;;;;;5055764;28;20435;-63
2022/09/12 06:20:56;;;;;;;19.97;14.10;;;13.50;99.90;;;;;;5061522;28;20444;-62
2022/09/12 06:23:25;;;;;;;15.03;12.30;;;13.60;99.90;;;;;;5068945;28;20516;-63
2022/09/12 06:25:52;;;;;;;15.40;11.83;;;13.70;99.90;;;;;;5068912;28;20550;-62
2022/09/12 06:28:20;;;;;;;15.83;11.83;;;13.80;99.90;;;;;;5075671;28;20443;-64
2022/09/12 06:30:47;;;;;;;18.17;13.33;;;13.90;99.90;;;;;;5075230;28;20838;-62
2022/09/12 06:33:14;;;;;;;13.53;11.40;;;13.90;99.90;;;;;;5075045;28;20446;-59
2022/09/12 06:35:41;;;;;;;18.87;13.67;;;14.00;99.90;;;;;;5075223;28;20459;-62
2022/09/12 06:38:08;;;;;;;14.40;11.13;;;14.10;99.90;;;;;;5075220;28;20450;-61
2022/09/12 06:40:42;;;;;;;14.40;12.00;;;14.20;99.90;;;;;;5074264;28;21018;-61
2022/09/12 06:43:09;;;;;;;14.20;11.53;;;14.30;99.90;;;;;;5075000;28;20462;-63
2022/09/12 06:45:37;;;;;;;16.07;12.80;;;14.40;99.90;;;;;;5075375;28;20463;-62
2022/09/12 06:48:04;;;;;;;13.33;10.80;;;14.50;99.90;;;;;;5076459;28;20951;-63
2022/09/12 06:50:31;;;;;;;13.00;11.33;;;14.60;99.90;;;;;;5074868;28;20578;-63
2022/09/12 06:52:58;;;;;;;15.43;12.40;;;14.80;99.90;;;;;;5066057;28;20444;-62
2022/09/12 06:55:24;;;;;;;15.53;11.33;;;14.90;99.90;;;;;;5059052;28;20475;-64
2022/09/12 06:57:52;;;;;;;15.40;12.50;;;15.00;99.90;;;;;;5061916;28;20476;-64
2022/09/12 07:00:18;;;;;;;15.70;12.87;;;15.10;99.90;;;;;;5057225;28;20451;-62
2022/09/12 07:02:47;;;;;;;16.87;11.40;;;15.30;99.90;;;;;;5055110;28;20452;-62
2022/09/12 07:05:14;;;;;;;12.10;10.13;;;15.40;99.90;;;;;;5068964;28;20450;-63
2022/09/12 07:07:41;;;;;;;14.03;12.00;;;15.50;99.90;;;;;;5077240;28;20458;-63
2022/09/12 07:10:10;;;;;;;13.70;10.93;;;15.60;99.90;;;;;;5063619;28;20480;-63
2022/09/12 07:12:37;;;;;;;12.10;10.80;;;15.70;99.90;;;;;;5059258;28;20820;-63
2022/09/12 07:15:05;;;;;;;14.77;10.70;;;15.80;99.90;;;;;;5065827;28;20527;-62
2022/09/12 07:17:31;;;;;;;12.10;10.40;;;16.00;99.90;;;;;;5054800;28;20479;-63
2022/09/12 07:20:00;;;;;;;10.53;9.40;;;16.10;99.90;;;;;;5070119;28;20522;-62
2022/09/12 07:22:26;;;;;;;13.50;11.40;;;16.20;99.90;;;;;;5074465;28;20447;-62
2022/09/12 07:24:54;;;;;;;15.10;11.90;;;16.30;99.90;;;;;;5074051;28;20450;-63
2022/09/12 07:27:21;;;;;;;11.93;10.53;;;16.40;99.90;;;;;;5074080;28;20448;-61
2022/09/12 07:29:48;;;;;;;14.60;11.30;;;16.50;99.90;;;;;;5074776;28;20490;-61
2022/09/12 07:32:14;;;;;;;15.30;11.43;;;16.60;99.90;;;;;;5073780;28;20927;-62
2022/09/12 07:34:41;;;;;;;17.73;12.33;;;16.70;99.90;;;;;;5073591;28;20448;-63
2022/09/12 07:37:09;;;;;;;15.40;12.30;;;16.80;99.90;;;;;;5078596;28;20545;-62
2022/09/12 07:39:36;;;;;;;13.53;12.10;;;16.90;99.90;;;;;;5074572;28;20449;-62
2022/09/12 07:42:03;;;;;;;15.03;11.57;;;17.00;99.90;;;;;;5074485;28;20487;-62
2022/09/12 07:44:30;;;;;;;12.87;11.37;;;17.10;99.90;;;;;;5074808;28;20439;-63
2022/09/12 07:46:56;;;;;;;13.83;11.60;;;17.10;99.90;;;;;;5075045;28;20478;-64
2022/09/12 07:49:23;;;;;;;12.70;10.90;;;17.20;99.90;;;;;;5075499;28;20479;-62
2022/09/12 07:51:50;;;;;;;12.43;9.70;;;17.40;99.90;;;;;;5074068;28;20443;-62
2022/09/12 07:54:18;;;;;;;14.03;11.57;;;17.50;99.90;;;;;;5074532;28;20447;-61
2022/09/12 07:56:45;;;;;;;11.90;10.47;;;17.60;99.90;;;;;;5073768;28;20550;-62
2022/09/12 07:59:12;;;;;;;11.30;10.13;;;17.70;99.90;;;;;;5073394;28;20505;-62
2022/09/12 08:01:40;;;;;;;12.10;10.80;;;17.80;99.90;;;;;;5074063;28;20451;-63
2022/09/12 08:04:07;;;;;;;12.13;10.60;;;17.90;99.90;;;;;;5073344;28;20447;-63
2022/09/12 08:06:35;;;;;;;12.50;11.20;;;18.00;99.90;;;;;;5073688;28;20982;-63
2022/09/12 08:09:03;;;;;;;10.17;9.00;;;18.20;99.90;;;;;;5075103;28;20451;-63
2022/09/12 08:11:31;;;;;;;11.50;10.37;;;18.30;99.90;;;;;;5074938;28;20443;-62
2022/09/12 08:14:00;;;;;;;13.27;9.93;;;18.50;99.90;;;;;;5073068;28;20455;-63
2022/09/12 08:16:30;;;;;;;11.50;10.30;;;18.60;99.90;;;;;;5073348;28;20564;-64
2022/09/12 08:18:56;;;;;;;11.57;9.80;;;18.70;99.90;;;;;;5073664;28;20923;-63
2022/09/12 08:21:25;;;;;;;10.37;9.30;;;18.70;99.90;;;;;;5074790;28;20440;-64
2022/09/12 08:23:53;;;;;;;12.00;9.20;;;18.80;99.90;;;;;;5074431;28;20455;-64
2022/09/12 08:26:20;;;;;;;11.57;9.80;;;18.90;99.90;;;;;;5074470;28;20467;-61
2022/09/12 08:28:48;;;;;;;12.13;8.97;;;19.00;99.90;;;;;;5073545;28;20443;-61
2022/09/12 08:31:17;;;;;;;11.50;9.17;;;19.10;99.90;;;;;;5072952;28;20489;-60
2022/09/12 08:33:44;;;;;;;9.47;8.37;;;19.10;99.90;;;;;;5074013;28;20451;-61
2022/09/12 08:36:13;;;;;;;9.87;8.33;;;19.20;99.90;;;;;;5073533;28;20880;-61
2022/09/12 08:38:42;;;;;;;9.80;8.57;;;19.30;99.90;;;;;;5073929;28;20443;-59
2022/09/12 08:41:13;;;;;;;11.37;9.23;;;19.40;99.90;;;;;;5072825;28;20444;-61
2022/09/12 08:43:54;;;;;;;10.37;9.10;;;19.50;99.90;;;;;;5072790;28;20879;-61
2022/09/12 08:46:24;;;;;;;12.93;9.30;;;19.70;99.90;;;;;;5074069;28;20554;-63
2022/09/12 08:48:51;;;;;;;10.50;8.97;;;19.90;99.90;;;;;;5073279;28;20432;-63
2022/09/12 08:51:20;;;;;;;10.00;8.50;;;20.00;99.90;;;;;;5072810;28;20487;-65
2022/09/12 08:53:49;;;;;;;11.07;9.87;;;20.10;99.90;;;;;;5073485;28;20483;-62
2022/09/12 08:56:16;;;;;;;11.20;9.17;;;20.10;99.90;;;;;;5074856;28;21041;-63
2022/09/12 08:58:45;;;;;;;9.40;8.50;;;20.20;99.90;;;;;;5076920;28;20473;-63
2022/09/12 09:01:28;;;;;;;10.87;9.77;;;20.30;99.40;;;;;;5078100;28;20814;-62
2022/09/12 09:04:17;;;;;;;9.87;8.10;;;20.40;98.80;;;;;;5077528;28;20521;-63
2022/09/12 09:06:58;;;;;;;9.33;8.33;;;20.50;97.90;;;;;;5076473;28;20978;-64
2022/09/12 09:09:34;;;;;;;10.53;7.77;;;20.60;97.30;;;;;;5078504;28;20455;-62
2022/09/12 09:12:12;;;;;;;9.60;7.47;;;20.80;96.70;;;;;;5078740;28;20476;-63
2022/09/12 09:14:57;;;;;;;7.90;7.10;;;21.10;95.80;;;;;;5080187;28;20431;-63
2022/09/12 09:17:32;;;;;;;6.90;5.83;;;21.40;95.00;;;;;;5078219;28;20430;-63
2022/09/12 09:20:05;;;;;;;7.27;6.23;;;21.60;94.10;;;;;;5076648;28;20421;-63
2022/09/12 09:22:40;;;;;;;9.57;6.23;;;21.80;93.10;;;;;;5076874;28;20480;-63
2022/09/12 09:25:13;;;;;;;6.93;6.03;;;21.90;92.20;;;;;;5076681;28;20434;-63
2022/09/12 09:27:46;;;;;;;6.40;5.50;;;22.00;91.50;;;;;;5076047;28;20812;-63
2022/09/12 09:30:15;;;;;;;6.13;5.53;;;22.10;90.60;;;;;;5076440;28;20481;-62
2022/09/12 09:32:46;;;;;;;11.70;7.80;;;22.10;89.80;;;;;;5075796;28;20451;-63
2022/09/12 09:35:17;;;;;;;8.97;7.60;;;22.30;89.50;;;;;;5076201;28;20430;-63
2022/09/12 09:37:55;;;;;;;8.60;7.80;;;22.40;87.30;;;;;;5076788;28;20442;-65
2022/09/12 09:40:27;;;;;;;7.80;6.77;;;22.50;85.90;;;;;;5076959;28;20430;-65
2022/09/12 09:42:59;;;;;;;6.70;6.03;;;22.60;84.20;;;;;;5076511;28;20515;-63
2022/09/12 09:45:28;;;;;;;8.87;6.60;;;22.60;83.10;;;;;;5075492;28;20462;-63
2022/09/12 09:48:00;;;;;;;7.13;6.20;;;22.60;82.00;;;;;;5075593;28;20451;-61
2022/09/12 09:50:27;;;;;;;7.60;6.80;;;22.60;81.00;;;;;;5075532;28;20520;-62
2022/09/12 09:52:56;;;;;;;6.63;5.97;;;22.70;80.50;;;;;;5075040;28;20443;-61
2022/09/12 09:55:28;;;;;;;7.83;7.10;;;22.70;79.20;;;;;;5075991;28;20471;-64
2022/09/12 09:57:54;;;;;;;7.67;6.60;;;22.70;78.20;;;;;;5076217;28;20435;-64
2022/09/12 10:00:28;;;;;;;8.00;6.37;;;22.80;77.80;;;;;;5074973;28;20449;-65
2022/09/12 10:03:07;;;;;;;6.43;5.60;;;22.90;76.80;;;;;;5075338;28;20427;-64
2022/09/12 10:05:43;;;;;;;7.43;6.10;;;23.00;75.40;;;;;;5075010;28;20462;-66
2022/09/12 10:08:19;;;;;;;6.90;5.30;;;23.00;74.70;;;;;;5074929;28;20466;-62
2022/09/12 10:10:53;;;;;;;6.50;5.20;;;23.20;74.10;;;;;;5075556;28;20469;-63
2022/09/12 10:13:27;;;;;;;7.60;5.87;;;23.30;73.10;;;;;;5075100;28;20490;-62
2022/09/12 10:15:58;;;;;;;7.43;6.63;;;23.40;72.50;;;;;;5074525;28;20471;-62
2022/09/12 10:18:41;;;;;;;7.63;6.83;;;23.50;72.00;;;;;;5074446;28;20520;-62
2022/09/12 10:21:18;;;;;;;8.23;6.20;;;23.80;71.00;;;;;;5074985;28;20424;-63
2022/09/12 10:23:46;;;;;;;7.03;5.60;;;23.90;69.90;;;;;;5074646;28;20443;-65
2022/09/12 10:26:14;;;;;;;5.77;5.13;;;24.10;69.20;;;;;;5074770;28;20459;-63
2022/09/12 10:28:44;;;;;;;5.20;4.70;;;24.20;68.10;;;;;;5074294;28;20445;-63
2022/09/12 10:31:16;;;;;;;6.13;4.60;;;24.40;67.10;;;;;;5081689;28;20481;-64
2022/09/12 10:33:51;;;;;;;4.43;4.03;;;24.60;65.80;;;;;;5082686;28;20430;-63
2022/09/12 10:36:18;;;;;;;4.93;4.33;;;24.70;64.80;;;;;;5082111;28;21043;-62
2022/09/12 10:38:50;;;;;;;4.40;3.40;;;24.70;63.90;;;;;;5080949;28;20933;-64
2022/09/12 10:41:18;;;;;;;4.57;3.17;;;24.60;62.30;;;;;;5076491;28;20428;-62
2022/09/12 10:43:45;;;;;;;2.87;2.67;;;24.40;62.20;;;;;;5074419;28;20944;-64
2022/09/12 10:46:23;;;;;;;4.70;3.20;;;24.20;61.40;;;;;;5074947;28;20509;-63
2022/09/12 10:49:11;;;;;;;3.97;2.90;;;24.20;61.20;;;;;;5075638;28;20458;-64
2022/09/12 10:51:38;;;;;;;3.20;2.80;;;24.20;60.80;;;;;;5076851;28;20481;-63
2022/09/12 10:54:09;;;;;;;4.67;3.50;;;24.30;60.70;;;;;;5076155;28;20440;-63
2022/09/12 10:56:41;;;;;;;4.73;2.80;;;24.50;60.30;;;;;;5074719;28;20473;-64
2022/09/12 10:59:15;;;;;;;2.57;2.30;;;24.70;59.70;;;;;;5074449;28;20480;-63
2022/09/12 11:01:44;;;;;;;4.27;2.80;;;24.80;58.80;;;;;;5074906;28;20426;-63
2022/09/12 11:04:43;;;;;;;2.80;2.60;;;24.70;58.10;;;;;;5073920;28;20534;-63
2022/09/12 11:07:43;;;;;;;2.70;2.50;;;24.50;57.80;;;;;;5074179;28;20470;-65
2022/09/12 11:10:26;;;;;;;3.17;2.87;;;24.70;57.60;;;;;;5040534;28;20465;-65
2022/09/12 11:13:00;;;;;;;2.43;2.20;;;24.70;57.30;;;;;;5074449;28;20431;-66
2022/09/12 11:15:37;;;;;;;3.87;2.80;;;24.80;57.30;;;;;;5074152;28;20540;-65
2022/09/12 11:18:17;;;;;;;2.73;2.10;;;24.70;56.40;;;;;;5073777;28;20437;-63
2022/09/12 11:20:56;;;;;;;2.40;2.20;;;24.70;56.30;;;;;;5073320;28;20433;-63
2022/09/12 11:23:41;;;;;;;2.30;2.10;;;24.80;56.10;;;;;;5073792;28;20435;-64
2022/09/12 11:26:21;;;;;;;3.00;2.10;;;25.00;55.50;;;;;;5073590;28;20470;-65
2022/09/12 11:28:55;;;;;;;4.87;3.47;;;25.10;55.00;;;;;;5073787;28;20426;-64
2022/09/12 11:31:43;;;;;;;2.70;2.50;;;25.30;54.50;;;;;;5072951;28;20480;-64
2022/09/12 11:34:11;;;;;;;3.20;2.20;;;25.30;53.60;;;;;;5073834;28;20458;-65
2022/09/12 11:36:48;;;;;;;3.40;2.33;;;25.40;53.40;;;;;;5073208;28;20459;-63
2022/09/12 11:39:16;;;;;;;1.90;1.80;;;25.50;52.90;;;;;;5075369;28;20431;-64
2022/09/12 11:41:46;;;;;;;2.10;1.90;;;25.60;52.40;;;;;;5073667;28;20435;-64
2022/09/12 11:44:20;;;;;;;3.70;3.03;;;25.50;51.30;;;;;;5074041;28;20438;-65
2022/09/12 11:46:47;;;;;;;4.27;2.97;;;25.20;51.40;;;;;;5073152;28;20455;-64
2022/09/12 11:49:24;;;;;;;3.03;2.43;;;25.20;51.60;;;;;;5073402;28;20438;-64
2022/09/12 11:51:55;;;;;;;2.70;2.30;;;25.30;51.40;;;;;;5073275;28;20839;-63
2022/09/12 11:54:28;;;;;;;2.43;2.23;;;25.30;51.30;;;;;;5074533;28;20431;-65
2022/09/12 11:57:04;;;;;;;4.50;3.87;;;25.40;51.20;;;;;;5073783;28;20955;-64
2022/09/12 11:59:39;;;;;;;3.07;2.50;;;25.40;51.30;;;;;;5073306;28;20435;-63
2022/09/12 12:02:12;;;;;;;2.30;2.10;;;25.40;51.20;;;;;;5073585;28;20902;-64
2022/09/12 12:04:45;;;;;;;2.23;2.03;;;25.50;51.10;;;;;;5073271;28;20473;-64
2022/09/12 12:07:14;;;;;;;4.50;2.40;;;25.60;50.90;;;;;;5073830;28;20958;-65
2022/09/12 12:09:47;;;;;;;3.30;1.87;;;25.70;50.70;;;;;;5072499;28;20484;-64
2022/09/12 12:12:20;;;;;;;2.40;2.20;;;25.70;50.20;;;;;;5073225;28;20563;-64
2022/09/12 12:14:51;;;;;;;2.93;2.63;;;25.90;50.10;;;;;;5073439;28;20428;-65
2022/09/12 12:17:21;;;;;;;3.90;2.60;;;26.00;50.20;;;;;;5072805;28;20470;-64
2022/09/12 12:19:56;;;;;;;2.77;2.27;;;26.00;50.30;;;;;;5073636;28;20445;-68
2022/09/12 12:22:26;;;;;;;2.77;2.20;;;26.00;50.20;;;;;;5073318;28;20925;-64
2022/09/12 12:25:07;;;;;;;3.80;2.50;;;25.80;50.30;;;;;;5073976;28;20537;-65
2022/09/12 12:27:52;;;;;;;3.10;2.70;;;25.70;50.70;;;;;;5074243;28;20434;-65
2022/09/12 12:31:01;;;;;;;3.70;2.50;;;25.70;50.90;;;;;;5073309;28;20925;-63
2022/09/12 12:34:01;;;;;;;3.10;2.17;;;25.70;51.10;;;;;;5076417;28;20875;-65
2022/09/12 12:36:42;;;;;;;3.60;2.17;;;25.70;51.00;;;;;;5076281;28;20457;-65
2022/09/12 12:39:54;;;;;;;2.77;2.47;;;25.70;51.00;;;;;;5076265;28;20438;-65
2022/09/12 12:43:01;;;;;;;3.07;2.60;;;25.60;51.20;;;;;;5048198;28;20975;-64
2022/09/12 12:46:04;;;;;;;3.17;2.30;;;25.50;51.50;;;;;;5077140;28;20540;-64
2022/09/12 12:48:46;;;;;;;2.47;2.27;;;25.30;51.90;;;;;;5076710;28;20891;-66
2022/09/12 12:51:43;;;;;;;3.50;3.20;;;25.30;52.30;;;;;;5076911;28;20977;-66
2022/09/12 12:54:33;;;;;;;2.67;2.43;;;25.30;52.70;;;;;;5076345;28;20441;-64
2022/09/12 12:57:16;;;;;;;3.80;3.07;;;25.40;52.80;;;;;;5076309;28;20972;-64